Time;durP1;ratioP1;P1;durP2;ratioP2;P2;SDS_P1;SDS_P2;PMS_P1;PMS_P2;Temp;Humidity;BMP_temperature;BMP_pressure;BME280_temperature;BME280_humidity;BME280_pressure;Samples;Min_cycle;Max_cycle;Signal;HPM_P1;HPM_P2
2021/12/28 00:00:29;;;;;;;35.90;19.05;;;6.80;99.90;;;;;;6156211;23;20020;-86
2021/12/28 00:02:56;;;;;;;41.13;20.08;;;6.90;99.90;;;;;;6181812;23;20344;-86
2021/12/28 00:05:23;;;;;;;33.42;17.85;;;6.90;99.90;;;;;;6180625;23;20016;-86
2021/12/28 00:07:49;;;;;;;36.00;18.73;;;6.90;99.90;;;;;;6156851;23;20096;-86
2021/12/28 00:10:17;;;;;;;35.00;16.80;;;6.90;99.90;;;;;;6180113;23;20055;-85
2021/12/28 00:12:44;;;;;;;39.20;19.05;;;6.90;99.90;;;;;;6156305;23;20063;-86
2021/12/28 00:18:02;;;;;;;41.90;19.33;;;7.00;99.90;;;;;;6180759;23;20447;-85
2021/12/28 00:20:46;;;;;;;35.35;17.20;;;6.90;99.90;;;;;;6155571;23;20167;-85
2021/12/28 00:23:17;;;;;;;45.50;19.48;;;6.90;99.90;;;;;;6156693;23;20373;-86
2021/12/28 00:25:45;;;;;;;38.58;18.25;;;6.90;99.90;;;;;;6179942;23;20012;-85
2021/12/28 00:28:11;;;;;;;46.67;20.88;;;6.90;99.90;;;;;;6182135;23;20444;-86
2021/12/28 00:30:36;;;;;;;53.72;20.13;;;6.90;99.90;;;;;;6181476;23;20079;-86
2021/12/28 00:33:03;;;;;;;49.30;19.98;;;6.90;99.90;;;;;;6156077;23;20099;-85
2021/12/28 00:35:32;;;;;;;57.53;20.05;;;6.90;99.90;;;;;;6181201;23;20020;-86
2021/12/28 00:37:58;;;;;;;54.30;20.95;;;6.90;99.90;;;;;;6156491;23;20015;-86
2021/12/28 00:40:25;;;;;;;49.70;19.63;;;7.00;99.90;;;;;;6179304;23;20032;-87
2021/12/28 00:42:50;;;;;;;57.50;20.70;;;6.90;99.90;;;;;;6182156;23;20020;-86
2021/12/28 00:45:16;;;;;;;52.15;20.42;;;7.00;99.90;;;;;;6181507;23;20396;-85
2021/12/28 00:47:43;;;;;;;53.67;19.05;;;7.00;99.90;;;;;;6155402;23;20052;-86
2021/12/28 00:50:10;;;;;;;63.30;23.23;;;6.90;99.90;;;;;;6181816;23;20285;-85
2021/12/28 00:52:36;;;;;;;63.42;21.45;;;7.00;99.90;;;;;;6181472;23;20021;-86
2021/12/28 00:55:05;;;;;;;60.50;21.60;;;7.00;99.90;;;;;;6180342;23;20320;-86
2021/12/28 00:57:31;;;;;;;51.85;19.95;;;7.00;99.90;;;;;;6182358;23;20009;-86
2021/12/28 00:59:57;;;;;;;55.90;21.90;;;7.00;99.90;;;;;;6155994;23;20009;-85
2021/12/28 01:02:22;;;;;;;53.58;19.98;;;7.00;99.90;;;;;;6180652;23;20025;-86
2021/12/28 01:04:48;;;;;;;65.13;22.40;;;7.10;99.90;;;;;;6180985;23;20534;-86
2021/12/28 01:07:14;;;;;;;67.07;21.88;;;7.10;99.90;;;;;;6182700;23;20486;-86
2021/12/28 01:09:41;;;;;;;65.05;21.92;;;7.10;99.90;;;;;;6156436;23;20020;-85
2021/12/28 01:12:08;;;;;;;60.08;22.40;;;7.10;99.90;;;;;;6180865;23;20438;-86
2021/12/28 01:14:34;;;;;;;55.33;22.88;;;7.10;99.90;;;;;;6156483;23;20092;-85
2021/12/28 01:17:00;;;;;;;52.08;19.50;;;7.10;99.90;;;;;;6181638;23;20044;-85
2021/12/28 01:19:27;;;;;;;71.50;21.42;;;7.20;99.90;;;;;;6155333;23;20084;-86
2021/12/28 01:21:53;;;;;;;60.40;22.33;;;7.20;99.90;;;;;;6181633;23;20013;-86
2021/12/28 01:24:18;;;;;;;62.15;21.92;;;7.10;99.90;;;;;;6154403;23;20032;-86
2021/12/28 01:26:46;;;;;;;63.20;21.52;;;7.10;99.90;;;;;;6157213;23;20027;-86
2021/12/28 01:29:11;;;;;;;63.50;21.85;;;7.10;99.90;;;;;;6156595;23;20040;-85
2021/12/28 01:31:37;;;;;;;62.80;22.00;;;7.20;99.90;;;;;;6157586;23;20017;-86
2021/12/28 01:34:08;;;;;;;68.30;21.27;;;7.10;99.90;;;;;;6181746;23;20450;-86
2021/12/28 01:36:33;;;;;;;62.22;21.20;;;7.10;99.90;;;;;;6157382;23;20016;-86
2021/12/28 01:39:00;;;;;;;56.17;20.90;;;7.10;99.90;;;;;;6155686;23;20005;-86
2021/12/28 01:41:26;;;;;;;56.08;21.27;;;7.10;99.90;;;;;;6157568;23;20140;-86
2021/12/28 01:43:56;;;;;;;58.53;19.23;;;7.10;99.90;;;;;;6181330;23;20068;-86
2021/12/28 01:46:22;;;;;;;54.60;18.95;;;7.10;99.90;;;;;;6157364;23;20517;-85
2021/12/28 01:48:48;;;;;;;55.72;20.73;;;7.10;99.90;;;;;;6181307;23;20021;-86
2021/12/28 01:51:19;;;;;;;59.58;19.85;;;7.10;99.90;;;;;;6157202;23;20026;-86
2021/12/28 01:53:47;;;;;;;57.85;21.23;;;7.10;99.90;;;;;;6179908;23;20017;-86
2021/12/28 01:56:19;;;;;;;54.58;18.48;;;7.10;99.90;;;;;;6157221;23;20044;-85
2021/12/28 01:58:45;;;;;;;64.80;20.50;;;7.10;99.90;;;;;;6182700;23;20017;-86
2021/12/28 02:01:11;;;;;;;60.80;20.50;;;7.10;99.90;;;;;;6182382;23;20020;-85
2021/12/28 02:03:40;;;;;;;57.40;20.38;;;7.10;99.90;;;;;;6155972;23;20013;-84
2021/12/28 02:06:06;;;;;;;57.95;18.95;;;7.10;99.90;;;;;;6181696;23;20009;-84
2021/12/28 02:08:32;;;;;;;61.17;19.50;;;7.20;99.90;;;;;;6155804;23;20015;-84
2021/12/28 02:10:59;;;;;;;51.92;17.50;;;7.10;99.90;;;;;;6156328;23;20016;-85
2021/12/28 02:13:26;;;;;;;56.15;20.60;;;7.10;99.90;;;;;;6181726;23;20017;-85
2021/12/28 02:15:53;;;;;;;54.45;19.67;;;7.10;99.90;;;;;;6182120;23;20024;-84
2021/12/28 02:18:21;;;;;;;64.93;22.10;;;7.10;99.90;;;;;;6157251;23;20087;-85
2021/12/28 02:20:48;;;;;;;59.85;20.15;;;7.10;99.90;;;;;;6181441;23;20325;-85
2021/12/28 02:23:14;;;;;;;54.92;20.00;;;7.10;99.90;;;;;;6156324;23;20514;-85
2021/12/28 02:25:43;;;;;;;55.63;19.95;;;7.20;99.90;;;;;;6179130;23;20076;-84
2021/12/28 02:28:11;;;;;;;54.97;20.27;;;7.20;99.90;;;;;;6180707;23;20031;-84
2021/12/28 02:30:43;;;;;;;52.75;18.15;;;7.20;99.90;;;;;;6157480;23;20080;-85
2021/12/28 02:33:09;;;;;;;52.20;18.60;;;7.20;99.90;;;;;;6157939;23;20070;-85
2021/12/28 02:35:36;;;;;;;48.17;18.52;;;7.20;99.90;;;;;;6159104;23;20084;-85
2021/12/28 02:38:02;;;;;;;46.75;16.50;;;7.20;99.90;;;;;;6184286;23;20024;-84
2021/12/28 02:40:30;;;;;;;53.35;18.95;;;7.20;99.90;;;;;;6157479;23;20009;-84
2021/12/28 02:42:58;;;;;;;50.90;18.08;;;7.20;99.90;;;;;;6183262;23;20027;-84
2021/12/28 02:45:30;;;;;;;47.08;18.17;;;7.20;99.90;;;;;;6183603;23;20091;-84
2021/12/28 02:47:58;;;;;;;49.25;16.25;;;7.30;99.90;;;;;;6183818;23;20021;-84
2021/12/28 02:50:28;;;;;;;48.20;16.13;;;7.30;99.90;;;;;;6182200;23;20021;-84
2021/12/28 02:52:54;;;;;;;53.97;18.05;;;7.30;99.90;;;;;;6183401;23;20024;-85
2021/12/28 02:55:22;;;;;;;48.15;16.48;;;7.30;99.90;;;;;;6157615;23;20088;-84
2021/12/28 02:57:51;;;;;;;46.55;17.35;;;7.40;99.90;;;;;;6184718;23;20514;-84
2021/12/28 03:00:35;;;;;;;47.60;17.63;;;7.40;99.90;;;;;;6183649;23;20017;-84
2021/12/28 03:03:17;;;;;;;36.50;15.80;;;7.40;99.90;;;;;;6184967;23;20041;-84
2021/12/28 03:05:46;;;;;;;39.33;15.30;;;7.40;99.90;;;;;;6159690;23;20391;-85
2021/12/28 03:08:13;;;;;;;38.67;16.38;;;7.40;99.90;;;;;;6183477;23;20035;-85
2021/12/28 03:10:40;;;;;;;49.15;16.27;;;7.40;99.90;;;;;;6183505;23;20424;-85
2021/12/28 03:13:07;;;;;;;44.20;15.35;;;7.40;99.90;;;;;;6185672;23;20386;-85
2021/12/28 03:15:33;;;;;;;42.47;15.50;;;7.40;99.90;;;;;;6160655;23;20068;-85
2021/12/28 03:17:59;;;;;;;38.35;15.52;;;7.40;99.90;;;;;;6161330;23;20017;-85
2021/12/28 03:20:26;;;;;;;37.17;14.70;;;7.30;99.90;;;;;;6183735;23;20027;-84
2021/12/28 03:22:51;;;;;;;36.55;14.85;;;7.30;99.90;;;;;;6159709;23;20048;-84
2021/12/28 03:25:17;;;;;;;33.95;14.18;;;7.40;99.90;;;;;;6184006;23;20486;-84
2021/12/28 03:27:44;;;;;;;44.28;15.32;;;7.30;99.90;;;;;;6185123;23;20086;-85
2021/12/28 03:30:14;;;;;;;35.20;15.30;;;7.40;99.90;;;;;;6183656;23;20032;-84
2021/12/28 03:32:40;;;;;;;39.97;15.05;;;7.30;99.90;;;;;;6184624;23;20143;-85
2021/12/28 03:35:08;;;;;;;37.08;14.95;;;7.30;99.90;;;;;;6184035;23;20037;-84
2021/12/28 03:37:34;;;;;;;40.40;14.68;;;7.20;99.90;;;;;;6159651;23;20335;-85
2021/12/28 03:40:01;;;;;;;34.10;14.82;;;7.20;99.90;;;;;;6158786;23;20351;-85
2021/12/28 03:42:27;;;;;;;36.10;14.80;;;7.20;99.90;;;;;;6159685;23;20024;-85
2021/12/28 03:44:53;;;;;;;33.95;14.57;;;7.20;99.90;;;;;;6184891;23;20016;-85
2021/12/28 03:47:19;;;;;;;40.25;12.98;;;7.20;99.90;;;;;;6183360;23;20028;-84
2021/12/28 03:49:44;;;;;;;40.60;14.13;;;7.10;99.90;;;;;;6184337;23;20025;-84
2021/12/28 03:52:10;;;;;;;27.27;13.68;;;7.10;99.90;;;;;;6184289;23;20017;-85
2021/12/28 03:54:36;;;;;;;32.22;14.27;;;7.00;99.90;;;;;;6157587;23;20065;-84
2021/12/28 03:57:02;;;;;;;38.95;15.00;;;7.00;99.90;;;;;;6183924;23;20064;-85
2021/12/28 03:59:28;;;;;;;30.55;12.68;;;7.00;99.90;;;;;;6181900;23;20357;-84
2021/12/28 04:01:54;;;;;;;34.42;13.50;;;7.00;99.90;;;;;;6181565;23;20013;-85
2021/12/28 04:04:20;;;;;;;34.42;13.90;;;7.00;99.90;;;;;;6181438;23;20021;-84
2021/12/28 04:06:45;;;;;;;29.55;12.32;;;7.00;99.90;;;;;;6182863;23;20087;-84
2021/12/28 04:09:12;;;;;;;28.20;12.68;;;7.00;99.90;;;;;;6180399;23;20041;-85
2021/12/28 04:11:39;;;;;;;31.58;12.38;;;6.90;99.90;;;;;;6158577;23;20091;-85
2021/12/28 04:14:07;;;;;;;28.13;11.38;;;7.00;99.90;;;;;;6181862;23;20485;-84
2021/12/28 04:16:34;;;;;;;27.92;11.38;;;7.00;99.90;;;;;;6181559;23;20024;-84
2021/12/28 04:19:03;;;;;;;25.10;11.82;;;7.00;99.90;;;;;;6181922;23;20087;-84
2021/12/28 04:21:31;;;;;;;34.95;12.60;;;7.00;99.90;;;;;;6157163;23;20052;-84
2021/12/28 04:23:57;;;;;;;22.15;11.00;;;7.00;99.90;;;;;;6179668;23;20013;-84
2021/12/28 04:26:24;;;;;;;33.17;11.32;;;7.00;99.90;;;;;;6156490;23;20017;-84
2021/12/28 04:28:50;;;;;;;23.45;12.05;;;7.00;99.90;;;;;;6157469;23;20496;-84
2021/12/28 04:31:15;;;;;;;26.55;11.40;;;6.90;99.90;;;;;;6181956;23;20016;-85
2021/12/28 04:33:41;;;;;;;30.13;11.65;;;7.00;99.90;;;;;;6182180;23;20451;-84
2021/12/28 04:36:13;;;;;;;30.30;10.07;;;6.90;99.90;;;;;;6182087;23;20021;-85
2021/12/28 04:38:39;;;;;;;29.05;11.27;;;6.90;99.90;;;;;;6181255;23;20443;-84
2021/12/28 04:41:05;;;;;;;27.00;11.23;;;6.90;99.90;;;;;;6179289;23;20017;-84
2021/12/28 04:43:31;;;;;;;23.48;9.95;;;6.90;99.90;;;;;;6181885;23;20134;-84
2021/12/28 04:45:57;;;;;;;18.90;10.13;;;7.00;99.90;;;;;;6179733;23;20040;-84
2021/12/28 04:48:23;;;;;;;24.38;10.68;;;7.00;99.90;;;;;;6181097;23;20131;-84
2021/12/28 04:50:49;;;;;;;21.88;8.85;;;7.00;99.90;;;;;;6156629;23;20021;-84
2021/12/28 04:53:15;;;;;;;30.98;9.90;;;7.00;99.90;;;;;;6157703;23;20021;-85
2021/12/28 04:55:43;;;;;;;22.08;9.02;;;6.90;99.90;;;;;;6179463;23;20013;-85
2021/12/28 04:58:10;;;;;;;23.95;9.32;;;7.00;99.90;;;;;;6157177;23;20016;-84
2021/12/28 05:00:36;;;;;;;17.88;9.07;;;6.90;99.90;;;;;;6181943;23;20012;-84
2021/12/28 05:03:02;;;;;;;23.05;9.52;;;7.00;99.90;;;;;;6181230;23;20020;-85
2021/12/28 05:05:28;;;;;;;23.55;8.80;;;7.00;99.90;;;;;;6179753;23;20008;-85
2021/12/28 05:07:54;;;;;;;24.63;8.68;;;7.00;99.90;;;;;;6181528;23;20329;-84
2021/12/28 05:10:20;;;;;;;23.90;9.02;;;7.00;99.90;;;;;;6180148;23;20013;-85
2021/12/28 05:12:46;;;;;;;24.33;8.63;;;7.00;99.90;;;;;;6181348;23;20017;-84
2021/12/28 05:15:12;;;;;;;19.13;8.18;;;7.00;99.90;;;;;;6181452;23;20044;-84
2021/12/28 05:17:38;;;;;;;21.52;7.70;;;7.00;99.90;;;;;;6182760;23;20163;-85
2021/12/28 05:20:06;;;;;;;20.63;7.88;;;7.00;99.90;;;;;;6178829;23;20035;-84
2021/12/28 05:22:31;;;;;;;21.38;7.93;;;7.00;99.90;;;;;;6155894;23;20013;-84
2021/12/28 05:24:57;;;;;;;22.65;7.63;;;7.00;99.90;;;;;;6155229;23;20017;-84
2021/12/28 05:27:23;;;;;;;17.88;7.68;;;7.00;99.90;;;;;;6157516;23;20063;-84
2021/12/28 05:29:49;;;;;;;18.95;7.20;;;7.10;99.90;;;;;;6156069;23;20013;-84
2021/12/28 05:32:15;;;;;;;17.70;7.35;;;7.10;99.90;;;;;;6156544;23;20046;-84
2021/12/28 05:34:41;;;;;;;22.45;7.47;;;7.10;99.90;;;;;;6156244;23;20107;-84
2021/12/28 05:37:07;;;;;;;17.25;7.28;;;7.10;99.90;;;;;;6157011;23;20493;-85
2021/12/28 05:39:33;;;;;;;16.88;7.43;;;7.10;99.90;;;;;;6178845;23;20013;-84
2021/12/28 05:41:59;;;;;;;19.63;7.28;;;7.10;99.90;;;;;;6181942;23;20017;-85
2021/12/28 05:44:25;;;;;;;15.07;7.22;;;7.10;99.90;;;;;;6155841;23;20013;-84
2021/12/28 05:46:51;;;;;;;23.73;7.38;;;7.10;99.90;;;;;;6180237;23;20075;-84
2021/12/28 05:49:17;;;;;;;19.83;7.05;;;7.10;99.90;;;;;;6180291;23;20075;-85
2021/12/28 05:51:43;;;;;;;15.50;7.70;;;7.00;99.90;;;;;;6181217;23;20036;-85
2021/12/28 05:54:09;;;;;;;19.55;7.63;;;7.10;99.90;;;;;;6179979;23;20016;-84
2021/12/28 05:56:36;;;;;;;22.92;8.02;;;7.10;99.90;;;;;;6157512;23;20073;-84
2021/12/28 05:59:02;;;;;;;16.73;7.30;;;7.10;99.90;;;;;;6156425;23;20009;-84
2021/12/28 06:01:28;;;;;;;21.50;7.68;;;7.00;99.90;;;;;;6156775;23;20010;-84
2021/12/28 06:03:54;;;;;;;23.67;6.88;;;7.10;99.90;;;;;;6157267;23;20443;-84
2021/12/28 06:06:19;;;;;;;17.90;7.40;;;7.10;99.90;;;;;;6159372;23;20463;-84
2021/12/28 06:08:45;;;;;;;17.00;6.97;;;7.10;99.90;;;;;;6183016;23;20123;-85
2021/12/28 06:11:13;;;;;;;23.80;7.82;;;7.10;99.90;;;;;;6158564;23;20001;-84
2021/12/28 06:13:40;;;;;;;21.40;8.00;;;7.00;99.90;;;;;;6183403;23;20100;-85
2021/12/28 06:16:07;;;;;;;24.52;7.82;;;7.00;99.90;;;;;;6184503;23;20064;-84
2021/12/28 06:18:32;;;;;;;16.15;7.63;;;7.00;99.90;;;;;;6184833;23;20017;-84
2021/12/28 06:20:58;;;;;;;16.75;7.63;;;7.00;99.90;;;;;;6183311;23;20012;-84
2021/12/28 06:23:24;;;;;;;22.05;7.22;;;6.90;99.90;;;;;;6184299;23;20029;-84
2021/12/28 06:25:50;;;;;;;20.35;7.05;;;6.90;99.90;;;;;;6156614;23;20324;-85
2021/12/28 06:28:16;;;;;;;22.08;7.03;;;6.90;99.90;;;;;;6159212;23;20041;-85
2021/12/28 06:30:41;;;;;;;25.98;7.45;;;6.90;99.90;;;;;;6158994;23;20044;-84
2021/12/28 06:33:07;;;;;;;24.75;7.22;;;6.90;99.90;;;;;;6184598;23;20020;-84
2021/12/28 06:35:33;;;;;;;18.70;7.80;;;6.90;99.90;;;;;;6182749;23;20063;-85
2021/12/28 06:37:59;;;;;;;18.90;6.80;;;6.90;99.90;;;;;;6159372;23;20466;-84
2021/12/28 06:40:25;;;;;;;20.60;6.65;;;6.90;99.90;;;;;;6182527;23;20024;-84
2021/12/28 06:42:51;;;;;;;16.52;6.32;;;6.90;99.90;;;;;;6158522;23;20088;-84
2021/12/28 06:45:16;;;;;;;21.83;7.18;;;6.80;99.90;;;;;;6159315;23;20052;-84
2021/12/28 06:47:43;;;;;;;17.75;6.85;;;6.80;99.90;;;;;;6183823;23;20080;-84
2021/12/28 06:50:09;;;;;;;15.45;6.90;;;6.80;99.90;;;;;;6181758;23;20349;-85
2021/12/28 06:52:34;;;;;;;22.17;5.97;;;6.80;99.90;;;;;;6158697;23;20071;-84
2021/12/28 06:55:00;;;;;;;14.77;6.57;;;6.90;99.90;;;;;;6181987;23;20024;-84
2021/12/28 06:57:26;;;;;;;19.60;6.72;;;6.90;99.90;;;;;;6184411;23;20024;-84
2021/12/28 06:59:52;;;;;;;17.50;6.10;;;6.90;99.90;;;;;;6183098;23;20013;-84
2021/12/28 07:02:18;;;;;;;28.77;7.40;;;6.90;99.90;;;;;;6183288;23;20067;-84
2021/12/28 07:04:44;;;;;;;21.15;6.32;;;6.90;99.90;;;;;;6183728;23;20016;-84
2021/12/28 07:07:11;;;;;;;17.33;6.10;;;6.90;99.90;;;;;;6183961;23;20013;-84
2021/12/28 07:09:38;;;;;;;22.52;6.38;;;6.90;99.90;;;;;;6157170;23;20511;-84
2021/12/28 07:12:04;;;;;;;15.75;6.28;;;6.90;99.90;;;;;;6184453;23;20351;-84
2021/12/28 07:14:30;;;;;;;18.75;5.95;;;7.00;99.90;;;;;;6182997;23;20011;-84
2021/12/28 07:16:57;;;;;;;17.30;6.80;;;7.00;99.90;;;;;;6182943;23;20510;-84
2021/12/28 07:19:24;;;;;;;17.30;5.80;;;7.00;99.90;;;;;;6181559;23;20510;-84
2021/12/28 07:21:50;;;;;;;13.40;5.50;;;7.00;99.90;;;;;;6183644;23;20357;-84
2021/12/28 07:24:16;;;;;;;17.30;5.95;;;7.00;99.90;;;;;;6157302;23;20017;-84
2021/12/28 07:26:42;;;;;;;15.02;5.63;;;7.00;99.90;;;;;;6158811;23;20033;-84
2021/12/28 07:29:11;;;;;;;14.43;5.13;;;7.10;99.90;;;;;;6182337;23;20116;-84
2021/12/28 07:31:37;;;;;;;14.13;5.60;;;7.00;99.90;;;;;;6183925;23;20017;-84
2021/12/28 07:34:03;;;;;;;23.30;7.15;;;7.10;99.90;;;;;;6157933;23;20128;-84
2021/12/28 07:36:28;;;;;;;27.23;7.38;;;7.10;99.90;;;;;;6181333;23;20393;-84
2021/12/28 07:38:54;;;;;;;19.60;5.75;;;7.10;99.90;;;;;;6155374;23;20459;-84
2021/12/28 07:41:21;;;;;;;21.08;5.13;;;7.20;99.90;;;;;;6179967;23;20024;-84
2021/12/28 07:43:46;;;;;;;17.45;5.80;;;7.20;99.90;;;;;;6156240;23;20009;-84
2021/12/28 07:46:12;;;;;;;12.60;4.10;;;7.20;99.90;;;;;;6179589;23;20080;-84
2021/12/28 07:48:38;;;;;;;18.63;5.78;;;7.30;99.90;;;;;;6155347;23;20089;-84
2021/12/28 07:51:04;;;;;;;17.20;5.65;;;7.30;99.90;;;;;;6179388;23;20021;-84
2021/12/28 07:53:30;;;;;;;17.45;4.70;;;7.30;99.90;;;;;;6179707;23;20024;-84
2021/12/28 07:55:57;;;;;;;21.40;5.57;;;7.30;99.90;;;;;;6182459;23;20024;-84
2021/12/28 07:58:24;;;;;;;20.58;5.40;;;7.30;99.90;;;;;;6181324;23;20020;-84
2021/12/28 08:00:56;;;;;;;22.05;5.57;;;7.40;99.90;;;;;;6177768;23;20088;-84
2021/12/28 08:03:23;;;;;;;20.77;5.35;;;7.40;99.90;;;;;;6182020;23;20019;-84
2021/12/28 08:05:49;;;;;;;19.65;5.28;;;7.40;99.90;;;;;;6158294;23;20096;-84
2021/12/28 08:08:15;;;;;;;16.98;5.63;;;7.40;99.90;;;;;;6180960;23;20027;-84
2021/12/28 08:10:41;;;;;;;21.67;5.20;;;7.40;99.90;;;;;;6154813;23;20048;-84
2021/12/28 08:13:07;;;;;;;20.33;5.88;;;7.40;99.90;;;;;;6180168;23;20017;-84
2021/12/28 08:15:33;;;;;;;20.95;5.47;;;7.40;99.90;;;;;;6180830;23;20136;-84
2021/12/28 08:18:39;;;;;;;18.13;6.05;;;7.40;99.90;;;;;;6181422;23;20071;-84
2021/12/28 08:21:11;;;;;;;18.25;5.15;;;7.40;99.90;;;;;;6157364;23;20017;-84
2021/12/28 08:23:37;;;;;;;22.58;5.35;;;7.40;99.90;;;;;;6179584;23;20013;-84
2021/12/28 08:26:03;;;;;;;21.27;5.68;;;7.40;99.90;;;;;;6152865;23;20020;-84
2021/12/28 08:28:29;;;;;;;16.23;5.57;;;7.30;99.90;;;;;;6180493;23;20297;-85
2021/12/28 08:30:56;;;;;;;21.13;6.00;;;7.30;99.90;;;;;;6179184;23;20017;-84
2021/12/28 08:33:23;;;;;;;19.55;5.57;;;7.30;99.90;;;;;;6155829;23;20438;-84
2021/12/28 08:35:49;;;;;;;15.45;5.78;;;7.40;99.90;;;;;;6177224;23;20024;-84
2021/12/28 08:38:15;;;;;;;22.08;6.65;;;7.40;99.90;;;;;;6178799;23;20009;-85
2021/12/28 08:40:43;;;;;;;17.00;6.45;;;7.40;99.90;;;;;;6177765;23;20013;-84
2021/12/28 08:43:10;;;;;;;24.50;6.82;;;7.40;99.90;;;;;;6155699;23;20096;-84
2021/12/28 08:45:37;;;;;;;22.42;6.68;;;7.40;99.90;;;;;;6178944;23;20024;-84
2021/12/28 08:48:03;;;;;;;21.15;7.28;;;7.50;99.90;;;;;;6178209;23;20112;-85
2021/12/28 08:50:29;;;;;;;29.40;6.85;;;7.60;99.90;;;;;;6179045;23;20068;-84
2021/12/28 08:52:54;;;;;;;16.63;6.95;;;7.60;99.90;;;;;;6179750;23;20021;-84
2021/12/28 08:55:22;;;;;;;25.95;7.95;;;7.60;99.90;;;;;;6177815;23;20017;-84
2021/12/28 08:57:49;;;;;;;16.83;6.65;;;7.60;99.90;;;;;;6155266;23;20052;-84
2021/12/28 09:00:19;;;;;;;21.35;8.30;;;7.60;99.90;;;;;;6179610;23;20546;-84
2021/12/28 09:02:44;;;;;;;19.70;7.93;;;7.70;99.90;;;;;;6179016;23;20016;-84
2021/12/28 09:05:11;;;;;;;25.58;8.05;;;7.70;99.90;;;;;;6180575;23;20039;-85
2021/12/28 09:07:37;;;;;;;23.63;8.70;;;7.80;99.90;;;;;;6177690;23;20486;-84
2021/12/28 09:10:05;;;;;;;24.55;8.00;;;7.80;99.90;;;;;;6153497;23;20092;-84
2021/12/28 09:12:30;;;;;;;24.92;8.52;;;7.80;99.90;;;;;;6178365;23;20075;-85
2021/12/28 09:14:56;;;;;;;24.75;8.02;;;7.80;99.90;;;;;;6179667;23;20009;-86
2021/12/28 09:17:22;;;;;;;24.17;7.28;;;7.80;99.90;;;;;;6156269;23;20394;-86
2021/12/28 09:19:48;;;;;;;19.52;8.10;;;7.80;99.90;;;;;;6180371;23;20013;-86
2021/12/28 09:22:13;;;;;;;19.13;8.02;;;7.90;99.90;;;;;;6148086;23;20131;-86
2021/12/28 09:24:39;;;;;;;20.40;9.07;;;7.80;99.90;;;;;;6151558;23;20032;-86
2021/12/28 09:27:06;;;;;;;19.92;7.97;;;7.90;99.90;;;;;;6172762;23;20491;-86
2021/12/28 09:29:32;;;;;;;21.25;7.78;;;7.90;99.90;;;;;;6179969;23;20400;-86
2021/12/28 09:31:59;;;;;;;21.00;7.85;;;7.90;99.90;;;;;;6154393;23;20462;-86
2021/12/28 09:34:26;;;;;;;21.05;8.13;;;7.90;99.90;;;;;;6174804;23;20493;-86
2021/12/28 09:36:52;;;;;;;23.27;7.95;;;7.90;99.90;;;;;;6171966;23;20044;-86
2021/12/28 09:39:22;;;;;;;22.40;9.23;;;7.90;99.90;;;;;;6173478;23;20051;-86
2021/12/28 09:42:00;;;;;;;18.65;8.00;;;7.90;99.90;;;;;;6171188;23;20047;-86
2021/12/28 09:44:27;;;;;;;21.75;7.75;;;7.90;99.90;;;;;;6180072;23;20024;-86
2021/12/28 09:46:53;;;;;;;28.13;8.65;;;8.00;99.90;;;;;;6147704;23;20027;-86
2021/12/28 09:49:20;;;;;;;17.02;8.18;;;8.00;99.90;;;;;;6126440;23;20501;-86
2021/12/28 09:51:46;;;;;;;21.98;7.75;;;8.10;99.90;;;;;;6149748;23;20136;-86
2021/12/28 09:54:11;;;;;;;25.40;9.30;;;8.10;99.90;;;;;;6150932;23;20009;-86
2021/12/28 09:56:37;;;;;;;18.77;8.00;;;8.10;99.90;;;;;;6173934;23;20013;-86
2021/12/28 09:59:04;;;;;;;15.88;7.55;;;8.10;99.90;;;;;;6175409;23;20009;-86
2021/12/28 10:01:30;;;;;;;19.92;7.82;;;8.20;99.90;;;;;;6152242;23;20048;-86
2021/12/28 10:03:57;;;;;;;18.67;7.63;;;8.20;99.90;;;;;;6174784;23;20264;-86
2021/12/28 10:06:27;;;;;;;20.67;8.00;;;8.20;99.90;;;;;;6152966;23;20040;-86
2021/12/28 10:09:14;;;;;;;17.48;7.55;;;8.20;99.90;;;;;;6152805;23;20010;-86
2021/12/28 10:11:44;;;;;;;19.13;6.70;;;8.20;99.90;;;;;;6148925;23;20013;-86
2021/12/28 10:14:30;;;;;;;17.65;7.38;;;8.30;99.90;;;;;;6151284;23;20009;-86
2021/12/28 10:17:02;;;;;;;17.95;6.90;;;8.30;99.90;;;;;;6169845;23;20017;-86
2021/12/28 10:19:47;;;;;;;15.50;7.40;;;8.30;99.90;;;;;;6146153;23;20020;-86
2021/12/28 10:22:36;;;;;;;17.23;6.85;;;8.40;99.90;;;;;;6176432;23;20017;-86
2021/12/28 10:25:14;;;;;;;18.20;7.32;;;8.40;99.90;;;;;;6151187;23;20139;-86
2021/12/28 10:27:43;;;;;;;18.88;7.45;;;8.40;99.90;;;;;;6152760;23;20024;-86
2021/12/28 10:30:14;;;;;;;15.43;7.22;;;8.40;99.90;;;;;;6156567;23;20017;-86
2021/12/28 10:32:43;;;;;;;15.77;6.47;;;8.40;99.90;;;;;;6147400;23;20017;-86
2021/12/28 10:35:13;;;;;;;18.45;6.65;;;8.40;99.90;;;;;;6179744;23;20013;-86
2021/12/28 10:37:41;;;;;;;13.55;6.20;;;8.40;99.90;;;;;;6155004;23;20040;-86
2021/12/28 10:40:12;;;;;;;13.48;5.97;;;8.40;99.90;;;;;;6153967;23;20068;-86
2021/12/28 10:42:47;;;;;;;13.50;6.30;;;8.40;99.90;;;;;;6155060;23;20064;-86
2021/12/28 10:45:20;;;;;;;12.07;5.75;;;8.50;99.90;;;;;;6155406;23;20067;-86
2021/12/28 10:47:47;;;;;;;14.00;5.82;;;8.50;99.90;;;;;;6179992;23;20020;-86
2021/12/28 10:50:47;;;;;;;15.07;5.50;;;8.50;99.90;;;;;;6153528;23;20035;-86
2021/12/28 10:53:20;;;;;;;14.15;5.45;;;8.40;99.90;;;;;;6134868;23;20028;-87
2021/12/28 10:55:58;;;;;;;12.40;4.57;;;8.50;99.90;;;;;;6178745;23;20013;-87
2021/12/28 10:58:31;;;;;;;12.55;4.90;;;8.50;99.90;;;;;;6179143;23;20475;-86
2021/12/28 11:01:07;;;;;;;10.40;4.90;;;8.50;99.90;;;;;;6181083;23;20407;-86
2021/12/28 11:03:34;;;;;;;11.38;4.80;;;8.60;99.90;;;;;;6179115;23;20013;-87
2021/12/28 11:06:06;;;;;;;11.15;4.80;;;8.60;99.90;;;;;;6150109;23;20059;-87
2021/12/28 11:08:32;;;;;;;10.23;3.75;;;8.60;99.90;;;;;;6178190;23;20021;-86
2021/12/28 11:11:02;;;;;;;7.70;3.78;;;8.60;99.90;;;;;;6153188;23;20005;-86
2021/12/28 11:13:30;;;;;;;10.70;4.00;;;8.60;99.90;;;;;;6151161;23;20019;-86
2021/12/28 11:15:57;;;;;;;8.43;3.80;;;8.70;99.90;;;;;;6149992;23;20010;-86
2021/12/28 11:18:25;;;;;;;6.30;2.92;;;8.70;99.90;;;;;;6182488;23;20051;-87
2021/12/28 11:20:54;;;;;;;9.80;3.13;;;8.70;99.90;;;;;;6157010;23;20317;-87
2021/12/28 11:23:23;;;;;;;8.02;3.05;;;8.70;99.90;;;;;;6156684;23;20474;-87
2021/12/28 11:26:17;;;;;;;6.10;3.22;;;8.70;99.90;;;;;;6154560;23;20013;-87
2021/12/28 11:28:52;;;;;;;6.88;3.13;;;8.70;99.90;;;;;;6129015;23;20349;-86
2021/12/28 11:31:25;;;;;;;6.68;2.63;;;8.70;99.90;;;;;;6163162;23;20111;-86
2021/12/28 11:33:55;;;;;;;5.22;2.60;;;8.80;99.90;;;;;;6154500;23;20091;-86
2021/12/28 11:36:31;;;;;;;5.20;2.92;;;8.80;99.90;;;;;;6181513;23;20024;-86
2021/12/28 11:38:59;;;;;;;5.28;2.65;;;8.80;99.90;;;;;;6154758;23;20391;-87
2021/12/28 11:41:25;;;;;;;6.00;2.35;;;8.90;99.90;;;;;;6180205;23;20021;-87
2021/12/28 11:43:53;;;;;;;6.03;2.70;;;8.90;99.90;;;;;;6152644;23;20447;-87
2021/12/28 11:46:19;;;;;;;6.35;3.10;;;8.90;99.90;;;;;;6178176;23;20352;-86
2021/12/28 11:48:45;;;;;;;7.18;2.80;;;8.90;99.90;;;;;;6155102;23;20036;-87
2021/12/28 11:51:12;;;;;;;6.68;3.08;;;8.90;99.90;;;;;;6153769;23;20020;-86
2021/12/28 11:53:41;;;;;;;5.18;2.90;;;8.90;99.90;;;;;;6151517;23;20095;-87
2021/12/28 11:56:09;;;;;;;6.45;2.67;;;9.00;99.90;;;;;;6178384;23;20017;-86
2021/12/28 11:59:13;;;;;;;5.00;2.97;;;8.90;99.90;;;;;;6154695;23;20521;-87
2021/12/28 12:01:47;;;;;;;5.53;2.83;;;9.00;99.90;;;;;;6162330;23;20040;-86
2021/12/28 12:04:31;;;;;;;7.18;3.13;;;9.00;99.90;;;;;;6182314;23;20013;-86
2021/12/28 12:07:12;;;;;;;6.13;3.00;;;9.00;99.90;;;;;;6182614;23;20451;-86
2021/12/28 12:09:50;;;;;;;8.80;3.58;;;8.90;99.90;;;;;;6182689;23;20047;-86
2021/12/28 12:12:22;;;;;;;6.13;3.00;;;9.00;99.90;;;;;;6158513;23;20048;-86
2021/12/28 12:14:51;;;;;;;5.17;3.33;;;9.00;99.90;;;;;;6176975;23;20016;-87
2021/12/28 12:17:28;;;;;;;7.03;3.05;;;9.00;99.90;;;;;;6174159;23;20245;-87
2021/12/28 12:19:59;;;;;;;5.50;3.22;;;9.10;99.90;;;;;;6156046;23;20024;-87
2021/12/28 12:22:30;;;;;;;7.03;3.80;;;9.10;99.90;;;;;;6180340;23;20025;-86
2021/12/28 12:25:17;;;;;;;6.03;2.83;;;9.10;99.90;;;;;;6180392;23;20021;-86
2021/12/28 12:27:55;;;;;;;5.78;3.33;;;9.10;99.90;;;;;;6153968;23;20013;-86
2021/12/28 12:30:24;;;;;;;6.10;3.03;;;9.10;99.90;;;;;;6151122;23;20088;-86
2021/12/28 12:33:02;;;;;;;6.35;3.78;;;9.10;99.90;;;;;;6180369;23;20444;-86
2021/12/28 12:35:49;;;;;;;8.20;3.53;;;9.10;99.90;;;;;;6179825;23;20023;-87
2021/12/28 12:38:15;;;;;;;7.80;3.30;;;9.20;99.90;;;;;;6157600;23;20028;-86
2021/12/28 12:40:59;;;;;;;6.38;3.78;;;9.20;99.90;;;;;;6157438;23;20019;-86
2021/12/28 12:43:38;;;;;;;6.70;3.38;;;9.20;99.90;;;;;;6162934;23;20017;-87
2021/12/28 12:46:48;;;;;;;6.18;3.10;;;9.20;99.90;;;;;;6156103;23;20077;-87
2021/12/28 12:49:21;;;;;;;7.85;3.50;;;9.20;99.90;;;;;;6050500;23;20089;-87
2021/12/28 12:51:50;;;;;;;6.65;3.40;;;9.20;99.90;;;;;;6157573;23;20147;-87
2021/12/28 12:54:23;;;;;;;6.65;3.60;;;9.20;99.90;;;;;;6182361;23;20463;-87